sensor_id;sensor_type;location;lat;lon;timestamp;pressure;altitude;pressure_sealevel;temperature;humidity
28606;BME280;46498;49.968;7.754;2023-04-21T00:00:22;-18430.00;;;4.77;100.00
28606;BME280;46498;49.968;7.754;2023-04-21T00:05:23;-18427.00;;;4.70;100.00
28606;BME280;46498;49.968;7.754;2023-04-21T00:10:24;-18431.00;;;4.82;100.00
28606;BME280;46498;49.968;7.754;2023-04-21T00:15:25;-18430.00;;;4.77;100.00
28606;BME280;46498;49.968;7.754;2023-04-21T00:20:26;-18429.00;;;4.75;100.00
28606;BME280;46498;49.968;7.754;2023-04-21T00:25:27;-18428.00;;;4.72;100.00
28606;BME280;46498;49.968;7.754;2023-04-21T00:30:28;-18429.00;;;4.75;100.00
28606;BME280;46498;49.968;7.754;2023-04-21T00:35:28;-18428.00;;;4.71;100.00
28606;BME280;46498;49.968;7.754;2023-04-21T00:40:30;-18427.00;;;4.68;100.00
28606;BME280;46498;49.968;7.754;2023-04-21T00:45:31;-18428.00;;;4.72;100.00
28606;BME280;46498;49.968;7.754;2023-04-21T00:50:32;-18430.00;;;4.78;100.00
28606;BME280;46498;49.968;7.754;2023-04-21T00:55:33;-18433.00;;;4.87;100.00
28606;BME280;46498;49.968;7.754;2023-04-21T01:00:36;-18431.00;;;4.82;100.00
28606;BME280;46498;49.968;7.754;2023-04-21T01:05:38;-18428.00;;;4.72;100.00
28606;BME280;46498;49.968;7.754;2023-04-21T01:10:40;-18430.00;;;4.78;100.00
28606;BME280;46498;49.968;7.754;2023-04-21T01:15:40;-18426.00;;;4.67;100.00
28606;BME280;46498;49.968;7.754;2023-04-21T01:20:41;-18428.00;;;4.73;100.00
28606;BME280;46498;49.968;7.754;2023-04-21T01:25:44;-18427.00;;;4.68;100.00
28606;BME280;46498;49.968;7.754;2023-04-21T01:30:45;-18428.00;;;4.72;100.00
28606;BME280;46498;49.968;7.754;2023-04-21T01:35:46;-18426.00;;;4.67;100.00
28606;BME280;46498;49.968;7.754;2023-04-21T01:40:52;-18424.00;;;4.58;100.00
28606;BME280;46498;49.968;7.754;2023-04-21T01:45:54;-18428.00;;;4.73;100.00
28606;BME280;46498;49.968;7.754;2023-04-21T01:50:55;-18430.00;;;4.77;100.00
28606;BME280;46498;49.968;7.754;2023-04-21T01:55:56;-18428.00;;;4.73;100.00
28606;BME280;46498;49.968;7.754;2023-04-21T02:00:56;-18425.00;;;4.64;100.00
28606;BME280;46498;49.968;7.754;2023-04-21T02:05:57;-18432.00;;;4.84;100.00
28606;BME280;46498;49.968;7.754;2023-04-21T02:11:00;-18432.00;;;4.84;100.00
28606;BME280;46498;49.968;7.754;2023-04-21T02:16:01;-18437.00;;;5.00;100.00
28606;BME280;46498;49.968;7.754;2023-04-21T02:21:14;-18434.00;;;4.89;100.00
28606;BME280;46498;49.968;7.754;2023-04-21T02:26:16;-18433.00;;;4.86;100.00
28606;BME280;46498;49.968;7.754;2023-04-21T02:31:17;-18430.00;;;4.78;100.00
28606;BME280;46498;49.968;7.754;2023-04-21T02:36:18;-18429.00;;;4.75;100.00
28606;BME280;46498;49.968;7.754;2023-04-21T02:41:19;-18427.00;;;4.69;100.00
28606;BME280;46498;49.968;7.754;2023-04-21T02:46:20;-18424.00;;;4.59;100.00
28606;BME280;46498;49.968;7.754;2023-04-21T02:51:21;-18420.00;;;4.48;100.00
28606;BME280;46498;49.968;7.754;2023-04-21T02:56:22;-18423.00;;;4.55;100.00
28606;BME280;46498;49.968;7.754;2023-04-21T03:01:25;-18423.00;;;4.55;100.00
28606;BME280;46498;49.968;7.754;2023-04-21T03:06:26;-18423.00;;;4.57;100.00
28606;BME280;46498;49.968;7.754;2023-04-21T03:11:27;-18422.00;;;4.54;100.00
28606;BME280;46498;49.968;7.754;2023-04-21T03:16:28;-18425.00;;;4.62;100.00
28606;BME280;46498;49.968;7.754;2023-04-21T03:21:29;-18425.00;;;4.63;100.00
28606;BME280;46498;49.968;7.754;2023-04-21T03:26:31;-18424.00;;;4.58;100.00
28606;BME280;46498;49.968;7.754;2023-04-21T03:31:32;-18431.00;;;4.81;100.00
28606;BME280;46498;49.968;7.754;2023-04-21T03:36:33;-18425.00;;;4.64;100.00
28606;BME280;46498;49.968;7.754;2023-04-21T03:41:34;-18424.00;;;4.59;100.00
28606;BME280;46498;49.968;7.754;2023-04-21T03:46:34;-18424.00;;;4.59;100.00
28606;BME280;46498;49.968;7.754;2023-04-21T03:51:35;-18427.00;;;4.69;100.00
28606;BME280;46498;49.968;7.754;2023-04-21T03:56:36;-18428.00;;;4.73;100.00
28606;BME280;46498;49.968;7.754;2023-04-21T04:01:37;-18427.00;;;4.69;100.00
28606;BME280;46498;49.968;7.754;2023-04-21T04:06:38;-18433.00;;;4.89;100.00
28606;BME280;46498;49.968;7.754;2023-04-21T04:11:39;-18430.00;;;4.80;100.00
28606;BME280;46498;49.968;7.754;2023-04-21T04:16:40;-18436.00;;;4.96;100.00
28606;BME280;46498;49.968;7.754;2023-04-21T04:21:43;-18434.00;;;4.90;100.00
28606;BME280;46498;49.968;7.754;2023-04-21T04:26:45;-18427.00;;;4.68;100.00
28606;BME280;46498;49.968;7.754;2023-04-21T04:31:45;-18433.00;;;4.86;100.00
28606;BME280;46498;49.968;7.754;2023-04-21T04:36:46;-18439.00;;;5.06;100.00
28606;BME280;46498;49.968;7.754;2023-04-21T04:41:47;-18435.00;;;4.93;100.00
28606;BME280;46498;49.968;7.754;2023-04-21T04:46:49;-18436.00;;;4.99;100.00
28606;BME280;46498;49.968;7.754;2023-04-21T04:51:50;-18432.00;;;4.86;100.00
28606;BME280;46498;49.968;7.754;2023-04-21T04:56:51;-18433.00;;;4.88;100.00
28606;BME280;46498;49.968;7.754;2023-04-21T05:01:51;-18436.00;;;4.98;100.00
28606;BME280;46498;49.968;7.754;2023-04-21T05:06:53;-18432.00;;;4.83;100.00
28606;BME280;46498;49.968;7.754;2023-04-21T05:11:53;-18430.00;;;4.77;100.00
28606;BME280;46498;49.968;7.754;2023-04-21T05:16:54;-18431.00;;;4.83;100.00
28606;BME280;46498;49.968;7.754;2023-04-21T05:21:58;-18433.00;;;4.88;100.00
28606;BME280;46498;49.968;7.754;2023-04-21T05:27:02;-18434.00;;;4.89;100.00
28606;BME280;46498;49.968;7.754;2023-04-21T05:32:03;-18432.00;;;4.83;100.00
28606;BME280;46498;49.968;7.754;2023-04-21T05:37:05;-18428.00;;;4.71;100.00
28606;BME280;46498;49.968;7.754;2023-04-21T05:42:08;-18431.00;;;4.82;100.00
28606;BME280;46498;49.968;7.754;2023-04-21T05:47:10;-18435.00;;;4.93;100.00
28606;BME280;46498;49.968;7.754;2023-04-21T05:52:11;-18428.00;;;4.72;100.00
28606;BME280;46498;49.968;7.754;2023-04-21T05:57:12;-18429.00;;;4.74;100.00
28606;BME280;46498;49.968;7.754;2023-04-21T06:02:13;-18427.00;;;4.69;100.00
28606;BME280;46498;49.968;7.754;2023-04-21T06:07:14;-18430.00;;;4.79;100.00
28606;BME280;46498;49.968;7.754;2023-04-21T06:12:19;-18434.00;;;4.92;100.00
28606;BME280;46498;49.968;7.754;2023-04-21T06:17:20;-18434.00;;;4.92;100.00
28606;BME280;46498;49.968;7.754;2023-04-21T06:22:24;-18429.00;;;4.75;100.00
28606;BME280;46498;49.968;7.754;2023-04-21T06:27:26;-18427.00;;;4.69;100.00
28606;BME280;46498;49.968;7.754;2023-04-21T06:32:27;-18430.00;;;4.79;100.00
28606;BME280;46498;49.968;7.754;2023-04-21T06:37:28;-18431.00;;;4.81;100.00
28606;BME280;46498;49.968;7.754;2023-04-21T06:42:29;-18433.00;;;4.87;100.00
28606;BME280;46498;49.968;7.754;2023-04-21T06:47:30;-18435.00;;;4.95;100.00
28606;BME280;46498;49.968;7.754;2023-04-21T06:52:31;-18434.00;;;4.91;100.00
28606;BME280;46498;49.968;7.754;2023-04-21T06:57:31;-18432.00;;;4.85;100.00
28606;BME280;46498;49.968;7.754;2023-04-21T07:02:32;-18434.00;;;4.91;100.00
28606;BME280;46498;49.968;7.754;2023-04-21T07:07:33;-18432.00;;;4.85;100.00
28606;BME280;46498;49.968;7.754;2023-04-21T07:12:34;-18438.00;;;5.05;100.00
28606;BME280;46498;49.968;7.754;2023-04-21T07:17:35;-18437.00;;;5.00;100.00
28606;BME280;46498;49.968;7.754;2023-04-21T07:22:36;-18437.00;;;5.00;100.00
28606;BME280;46498;49.968;7.754;2023-04-21T07:27:38;-18437.00;;;5.00;100.00
28606;BME280;46498;49.968;7.754;2023-04-21T07:32:39;-18437.00;;;5.01;100.00
28606;BME280;46498;49.968;7.754;2023-04-21T07:37:40;-18437.00;;;5.01;100.00
28606;BME280;46498;49.968;7.754;2023-04-21T07:42:41;-18445.00;;;5.26;100.00
28606;BME280;46498;49.968;7.754;2023-04-21T07:47:42;-18445.00;;;5.27;100.00
28606;BME280;46498;49.968;7.754;2023-04-21T07:52:43;-18440.00;;;5.11;100.00
28606;BME280;46498;49.968;7.754;2023-04-21T07:57:44;-18440.00;;;5.09;100.00
28606;BME280;46498;49.968;7.754;2023-04-21T08:02:45;-18440.00;;;5.09;100.00
28606;BME280;46498;49.968;7.754;2023-04-21T08:07:46;-18447.00;;;5.33;100.00
28606;BME280;46498;49.968;7.754;2023-04-21T08:12:46;-18448.00;;;5.36;100.00
28606;BME280;46498;49.968;7.754;2023-04-21T08:17:47;-18455.00;;;5.57;100.00
28606;BME280;46498;49.968;7.754;2023-04-21T08:22:48;-18466.00;;;5.92;100.00
28606;BME280;46498;49.968;7.754;2023-04-21T08:27:50;-18468.00;;;5.97;100.00
28606;BME280;46498;49.968;7.754;2023-04-21T08:32:51;-18479.00;;;6.31;100.00
28606;BME280;46498;49.968;7.754;2023-04-21T08:37:51;-18472.00;;;6.09;100.00
28606;BME280;46498;49.968;7.754;2023-04-21T08:42:54;-18487.00;;;6.58;100.00
28606;BME280;46498;49.968;7.754;2023-04-21T08:47:55;-18510.00;;;7.30;100.00
28606;BME280;46498;49.968;7.754;2023-04-21T08:52:57;-18509.00;;;7.25;100.00
28606;BME280;46498;49.968;7.754;2023-04-21T08:57:58;-18519.00;;;7.58;100.00
28606;BME280;46498;49.968;7.754;2023-04-21T09:02:59;-18518.00;;;7.54;100.00
28606;BME280;46498;49.968;7.754;2023-04-21T09:08:10;-18535.00;;;8.08;100.00
28606;BME280;46498;49.968;7.754;2023-04-21T09:13:11;-18536.00;;;8.09;100.00
28606;BME280;46498;49.968;7.754;2023-04-21T09:18:18;-18535.00;;;8.07;100.00
28606;BME280;46498;49.968;7.754;2023-04-21T09:23:20;-18536.00;;;8.12;100.00
28606;BME280;46498;49.968;7.754;2023-04-21T09:28:21;-18549.00;;;8.51;100.00
28606;BME280;46498;49.968;7.754;2023-04-21T09:33:22;-18563.00;;;8.96;100.00
28606;BME280;46498;49.968;7.754;2023-04-21T09:38:32;-18560.00;;;8.85;100.00
28606;BME280;46498;49.968;7.754;2023-04-21T09:43:33;-18572.00;;;9.24;100.00
28606;BME280;46498;49.968;7.754;2023-04-21T09:48:34;-18572.00;;;9.24;100.00
28606;BME280;46498;49.968;7.754;2023-04-21T09:53:38;-18581.00;;;9.53;100.00
28606;BME280;46498;49.968;7.754;2023-04-21T09:58:45;-18579.00;;;9.45;100.00
28606;BME280;46498;49.968;7.754;2023-04-21T10:03:47;-18594.00;;;9.93;100.00
28606;BME280;46498;49.968;7.754;2023-04-21T10:08:49;-18607.00;;;10.34;100.00
28606;BME280;46498;49.968;7.754;2023-04-21T10:13:51;-18621.00;;;10.77;100.00
28606;BME280;46498;49.968;7.754;2023-04-21T10:18:52;-18608.00;;;10.37;93.14
28606;BME280;46498;49.968;7.754;2023-04-21T10:23:53;-18620.00;;;10.74;100.00
28606;BME280;46498;49.968;7.754;2023-04-21T10:28:58;-18616.00;;;10.62;100.00
28606;BME280;46498;49.968;7.754;2023-04-21T10:35:21;-18637.00;;;11.26;96.11
28606;BME280;46498;49.968;7.754;2023-04-21T10:40:32;-18629.00;;;11.04;95.99
28606;BME280;46498;49.968;7.754;2023-04-21T10:45:45;-18643.00;;;11.46;95.29
28606;BME280;46498;49.968;7.754;2023-04-21T10:50:47;-18643.00;;;11.45;90.77
28606;BME280;46498;49.968;7.754;2023-04-21T10:55:48;-18658.00;;;11.95;93.29
28606;BME280;46498;49.968;7.754;2023-04-21T11:00:53;-18647.00;;;11.58;93.32
28606;BME280;46498;49.968;7.754;2023-04-21T11:05:54;-18656.00;;;11.86;85.27
28606;BME280;46498;49.968;7.754;2023-04-21T11:10:55;-18648.00;;;11.62;87.16
28606;BME280;46498;49.968;7.754;2023-04-21T11:16:06;-18632.00;;;11.11;91.63
28606;BME280;46498;49.968;7.754;2023-04-21T11:21:09;-18653.00;;;11.77;90.42
28606;BME280;46498;49.968;7.754;2023-04-21T11:26:10;-18668.00;;;12.23;88.46
28606;BME280;46498;49.968;7.754;2023-04-21T11:31:11;-18670.00;;;12.31;90.11
28606;BME280;46498;49.968;7.754;2023-04-21T11:36:12;-18658.00;;;11.93;84.75
28606;BME280;46498;49.968;7.754;2023-04-21T11:41:20;-18668.00;;;12.24;82.70
28606;BME280;46498;49.968;7.754;2023-04-21T11:46:24;-18685.00;;;12.78;80.22
28606;BME280;46498;49.968;7.754;2023-04-21T11:51:25;-18682.00;;;12.70;80.35
28606;BME280;46498;49.968;7.754;2023-04-21T11:56:27;-18676.00;;;12.51;87.08
28606;BME280;46498;49.968;7.754;2023-04-21T12:01:28;-18692.00;;;13.00;86.31
28606;BME280;46498;49.968;7.754;2023-04-21T12:06:29;-18687.00;;;12.85;86.23
28606;BME280;46498;49.968;7.754;2023-04-21T12:11:31;-18681.00;;;12.66;85.06
28606;BME280;46498;49.968;7.754;2023-04-21T12:16:32;-18681.00;;;12.66;84.76
28606;BME280;46498;49.968;7.754;2023-04-21T12:21:36;-18677.00;;;12.54;89.37
28606;BME280;46498;49.968;7.754;2023-04-21T12:26:37;-18651.00;;;11.70;89.48
28606;BME280;46498;49.968;7.754;2023-04-21T12:31:38;-18651.00;;;11.71;92.47
28606;BME280;46498;49.968;7.754;2023-04-21T12:36:40;-18655.00;;;11.84;94.91
28606;BME280;46498;49.968;7.754;2023-04-21T12:41:40;-18674.00;;;12.44;94.65
28606;BME280;46498;49.968;7.754;2023-04-21T12:46:41;-18669.00;;;12.27;89.55
28606;BME280;46498;49.968;7.754;2023-04-21T12:51:42;-18674.00;;;12.45;91.87
28606;BME280;46498;49.968;7.754;2023-04-21T12:56:44;-18673.00;;;12.40;90.64
28606;BME280;46498;49.968;7.754;2023-04-21T13:01:45;-18689.00;;;12.92;87.71
28606;BME280;46498;49.968;7.754;2023-04-21T13:06:46;-18681.00;;;12.66;88.39
28606;BME280;46498;49.968;7.754;2023-04-21T13:11:47;-18696.00;;;13.13;93.59
28606;BME280;46498;49.968;7.754;2023-04-21T13:16:48;-18697.00;;;13.17;88.40
28606;BME280;46498;49.968;7.754;2023-04-21T13:21:50;-18680.00;;;12.62;93.28
28606;BME280;46498;49.968;7.754;2023-04-21T13:26:54;-18672.00;;;12.36;90.12
28606;BME280;46498;49.968;7.754;2023-04-21T13:31:55;-18662.00;;;12.06;91.74
28606;BME280;46498;49.968;7.754;2023-04-21T13:36:56;-18669.00;;;12.28;91.52
28606;BME280;46498;49.968;7.754;2023-04-21T13:41:57;-18676.00;;;12.50;89.27
28606;BME280;46498;49.968;7.754;2023-04-21T13:46:58;-18681.00;;;12.66;92.05
28606;BME280;46498;49.968;7.754;2023-04-21T13:51:59;-18670.00;;;12.31;89.94
28606;BME280;46498;49.968;7.754;2023-04-21T13:57:01;-18668.00;;;12.25;91.93
28606;BME280;46498;49.968;7.754;2023-04-21T14:02:02;-18672.00;;;12.38;89.28
28606;BME280;46498;49.968;7.754;2023-04-21T14:07:03;-18701.00;;;13.27;88.67
28606;BME280;46498;49.968;7.754;2023-04-21T14:12:04;-18712.00;;;13.63;84.13
28606;BME280;46498;49.968;7.754;2023-04-21T14:17:05;-18696.00;;;13.13;84.21
28606;BME280;46498;49.968;7.754;2023-04-21T14:22:06;-18679.00;;;12.59;86.48
28606;BME280;46498;49.968;7.754;2023-04-21T14:27:07;-18676.00;;;12.50;89.30
28606;BME280;46498;49.968;7.754;2023-04-21T14:32:08;-18677.00;;;12.53;87.32
28606;BME280;46498;49.968;7.754;2023-04-21T14:37:09;-18680.00;;;12.63;92.88
28606;BME280;46498;49.968;7.754;2023-04-21T14:42:10;-18682.00;;;12.70;89.91
28606;BME280;46498;49.968;7.754;2023-04-21T14:47:11;-18684.00;;;12.76;90.91
28606;BME280;46498;49.968;7.754;2023-04-21T14:52:12;-18693.00;;;13.05;94.75
28606;BME280;46498;49.968;7.754;2023-04-21T14:57:13;-18702.00;;;13.33;91.18
28606;BME280;46498;49.968;7.754;2023-04-21T15:02:20;-18704.00;;;13.38;90.95
28606;BME280;46498;49.968;7.754;2023-04-21T15:07:22;-18717.00;;;13.79;86.81
28606;BME280;46498;49.968;7.754;2023-04-21T15:12:25;-18712.00;;;13.64;85.46
28606;BME280;46498;49.968;7.754;2023-04-21T15:17:26;-18713.00;;;13.66;86.74
28606;BME280;46498;49.968;7.754;2023-04-21T15:22:27;-18715.00;;;13.73;86.79
28606;BME280;46498;49.968;7.754;2023-04-21T15:27:28;-18705.00;;;13.41;87.39
28606;BME280;46498;49.968;7.754;2023-04-21T15:32:29;-18705.00;;;13.42;86.25
28606;BME280;46498;49.968;7.754;2023-04-21T15:37:30;-18694.00;;;13.05;87.07
28606;BME280;46498;49.968;7.754;2023-04-21T15:42:31;-18695.00;;;13.08;85.03
28606;BME280;46498;49.968;7.754;2023-04-21T15:47:31;-18690.00;;;12.94;87.07
28606;BME280;46498;49.968;7.754;2023-04-21T16:08:06;-18704.00;;;13.38;85.06
28606;BME280;46498;49.968;7.754;2023-04-21T16:13:07;-18711.00;;;13.61;82.86
28606;BME280;46498;49.968;7.754;2023-04-21T16:18:08;-18708.00;;;13.51;82.92
28606;BME280;46498;49.968;7.754;2023-04-21T16:23:09;-18705.00;;;13.40;85.65
28606;BME280;46498;49.968;7.754;2023-04-21T16:28:10;-18700.00;;;13.24;86.10
28606;BME280;46498;49.968;7.754;2023-04-21T16:33:11;-18697.00;;;13.18;85.84
28606;BME280;46498;49.968;7.754;2023-04-21T16:38:13;-18696.00;;;13.13;86.18
28606;BME280;46498;49.968;7.754;2023-04-21T16:43:14;-18696.00;;;13.11;85.08
28606;BME280;46498;49.968;7.754;2023-04-21T16:48:15;-18696.00;;;13.11;88.48
28606;BME280;46498;49.968;7.754;2023-04-21T16:53:16;-18694.00;;;13.07;86.37
28606;BME280;46498;49.968;7.754;2023-04-21T16:58:17;-18693.00;;;13.02;86.89
28606;BME280;46498;49.968;7.754;2023-04-21T17:03:20;-18691.00;;;12.98;88.83
28606;BME280;46498;49.968;7.754;2023-04-21T17:08:21;-18688.00;;;12.88;89.91
28606;BME280;46498;49.968;7.754;2023-04-21T17:13:22;-18685.00;;;12.78;93.48
28606;BME280;46498;49.968;7.754;2023-04-21T17:18:23;-18684.00;;;12.75;93.16
28606;BME280;46498;49.968;7.754;2023-04-21T17:23:24;-18680.00;;;12.61;95.65
28606;BME280;46498;49.968;7.754;2023-04-21T17:28:25;-18674.00;;;12.44;100.00
28606;BME280;46498;49.968;7.754;2023-04-21T17:33:26;-18648.00;;;11.63;100.00
28606;BME280;46498;49.968;7.754;2023-04-21T17:38:28;-18599.00;;;10.08;100.00
28606;BME280;46498;49.968;7.754;2023-04-21T17:43:29;-18590.00;;;9.81;100.00
28606;BME280;46498;49.968;7.754;2023-04-21T17:48:30;-18584.00;;;9.61;100.00
28606;BME280;46498;49.968;7.754;2023-04-21T17:53:31;-18584.00;;;9.61;100.00
28606;BME280;46498;49.968;7.754;2023-04-21T17:58:33;-18585.00;;;9.65;100.00
28606;BME280;46498;49.968;7.754;2023-04-21T18:03:35;-18580.00;;;9.49;100.00
28606;BME280;46498;49.968;7.754;2023-04-21T18:08:36;-18580.00;;;9.49;100.00
28606;BME280;46498;49.968;7.754;2023-04-21T18:13:38;-18581.00;;;9.50;100.00
28606;BME280;46498;49.968;7.754;2023-04-21T18:18:39;-18578.00;;;9.43;100.00
28606;BME280;46498;49.968;7.754;2023-04-21T18:23:41;-18579.00;;;9.46;100.00
28606;BME280;46498;49.968;7.754;2023-04-21T18:28:42;-18571.00;;;9.19;100.00
28606;BME280;46498;49.968;7.754;2023-04-21T18:33:43;-18561.00;;;8.88;100.00
28606;BME280;46498;49.968;7.754;2023-04-21T18:38:45;-18555.00;;;8.70;100.00
28606;BME280;46498;49.968;7.754;2023-04-21T18:43:46;-18557.00;;;8.77;100.00
28606;BME280;46498;49.968;7.754;2023-04-21T18:48:47;-18556.00;;;8.73;100.00
28606;BME280;46498;49.968;7.754;2023-04-21T18:53:48;-18557.00;;;8.76;100.00
28606;BME280;46498;49.968;7.754;2023-04-21T18:58:49;-18551.00;;;8.56;100.00
28606;BME280;46498;49.968;7.754;2023-04-21T19:03:50;-18544.00;;;8.35;100.00
28606;BME280;46498;49.968;7.754;2023-04-21T19:08:51;-18542.00;;;8.30;100.00
28606;BME280;46498;49.968;7.754;2023-04-21T19:13:52;-18540.00;;;8.23;100.00
28606;BME280;46498;49.968;7.754;2023-04-21T19:18:53;-18535.00;;;8.07;100.00
28606;BME280;46498;49.968;7.754;2023-04-21T19:23:54;-18534.00;;;8.03;100.00
28606;BME280;46498;49.968;7.754;2023-04-21T19:28:57;-18530.00;;;7.91;100.00
28606;BME280;46498;49.968;7.754;2023-04-21T19:33:57;-18536.00;;;8.11;100.00
28606;BME280;46498;49.968;7.754;2023-04-21T19:38:59;-18529.00;;;7.88;100.00
28606;BME280;46498;49.968;7.754;2023-04-21T19:44:00;-18529.00;;;7.90;100.00
28606;BME280;46498;49.968;7.754;2023-04-21T19:49:01;-18530.00;;;7.93;100.00
28606;BME280;46498;49.968;7.754;2023-04-21T19:54:02;-18527.00;;;7.83;100.00
28606;BME280;46498;49.968;7.754;2023-04-21T19:59:12;-18527.00;;;7.82;100.00
28606;BME280;46498;49.968;7.754;2023-04-21T20:04:13;-18527.00;;;7.82;100.00
28606;BME280;46498;49.968;7.754;2023-04-21T20:09:14;-18526.00;;;7.81;100.00
28606;BME280;46498;49.968;7.754;2023-04-21T20:14:15;-18527.00;;;7.83;100.00
28606;BME280;46498;49.968;7.754;2023-04-21T20:19:18;-18529.00;;;7.90;100.00
28606;BME280;46498;49.968;7.754;2023-04-21T20:24:22;-18525.00;;;7.77;100.00
28606;BME280;46498;49.968;7.754;2023-04-21T20:29:23;-18526.00;;;7.80;100.00
28606;BME280;46498;49.968;7.754;2023-04-21T20:34:24;-18528.00;;;7.85;100.00
28606;BME280;46498;49.968;7.754;2023-04-21T20:39:25;-18524.00;;;7.72;100.00
28606;BME280;46498;49.968;7.754;2023-04-21T20:44:26;-18526.00;;;7.80;100.00
28606;BME280;46498;49.968;7.754;2023-04-21T20:49:30;-18527.00;;;7.84;100.00
28606;BME280;46498;49.968;7.754;2023-04-21T20:54:31;-18530.00;;;7.93;100.00
28606;BME280;46498;49.968;7.754;2023-04-21T20:59:34;-18526.00;;;7.81;100.00
28606;BME280;46498;49.968;7.754;2023-04-21T21:04:35;-18526.00;;;7.81;100.00
28606;BME280;46498;49.968;7.754;2023-04-21T21:09:36;-18526.00;;;7.80;100.00
28606;BME280;46498;49.968;7.754;2023-04-21T21:14:37;-18525.00;;;7.77;100.00
28606;BME280;46498;49.968;7.754;2023-04-21T21:19:38;-18526.00;;;7.81;100.00
28606;BME280;46498;49.968;7.754;2023-04-21T21:24:40;-18529.00;;;7.89;100.00
28606;BME280;46498;49.968;7.754;2023-04-21T21:29:41;-18528.00;;;7.87;100.00
28606;BME280;46498;49.968;7.754;2023-04-21T21:34:42;-18529.00;;;7.88;100.00
28606;BME280;46498;49.968;7.754;2023-04-21T21:39:42;-18530.00;;;7.92;100.00
28606;BME280;46498;49.968;7.754;2023-04-21T21:44:43;-18531.00;;;7.94;100.00
28606;BME280;46498;49.968;7.754;2023-04-21T21:49:44;-18533.00;;;8.02;100.00
28606;BME280;46498;49.968;7.754;2023-04-21T21:54:45;-18531.00;;;7.94;100.00
28606;BME280;46498;49.968;7.754;2023-04-21T21:59:46;-18539.00;;;8.19;100.00
28606;BME280;46498;49.968;7.754;2023-04-21T22:04:47;-18550.00;;;8.55;100.00
28606;BME280;46498;49.968;7.754;2023-04-21T22:09:49;-18552.00;;;8.60;100.00
28606;BME280;46498;49.968;7.754;2023-04-21T22:14:50;-18549.00;;;8.51;100.00
28606;BME280;46498;49.968;7.754;2023-04-21T22:19:51;-18548.00;;;8.50;100.00
28606;BME280;46498;49.968;7.754;2023-04-21T22:24:53;-18547.00;;;8.46;100.00
28606;BME280;46498;49.968;7.754;2023-04-21T22:29:54;-18548.00;;;8.47;100.00
28606;BME280;46498;49.968;7.754;2023-04-21T22:34:55;-18546.00;;;8.43;100.00
28606;BME280;46498;49.968;7.754;2023-04-21T22:39:55;-18546.00;;;8.42;100.00
28606;BME280;46498;49.968;7.754;2023-04-21T22:44:57;-18545.00;;;8.39;100.00
28606;BME280;46498;49.968;7.754;2023-04-21T22:49:59;-18544.00;;;8.37;100.00
28606;BME280;46498;49.968;7.754;2023-04-21T22:54:59;-18543.00;;;8.34;100.00
28606;BME280;46498;49.968;7.754;2023-04-21T23:00:01;-18544.00;;;8.36;100.00
28606;BME280;46498;49.968;7.754;2023-04-21T23:05:02;-18542.00;;;8.30;100.00
28606;BME280;46498;49.968;7.754;2023-04-21T23:10:04;-18543.00;;;8.32;100.00
28606;BME280;46498;49.968;7.754;2023-04-21T23:15:06;-18544.00;;;8.36;100.00
28606;BME280;46498;49.968;7.754;2023-04-21T23:20:08;-18546.00;;;8.43;100.00
28606;BME280;46498;49.968;7.754;2023-04-21T23:25:09;-18547.00;;;8.45;100.00
28606;BME280;46498;49.968;7.754;2023-04-21T23:30:11;-18547.00;;;8.44;100.00
28606;BME280;46498;49.968;7.754;2023-04-21T23:35:12;-18547.00;;;8.44;100.00
28606;BME280;46498;49.968;7.754;2023-04-21T23:40:13;-18552.00;;;8.61;100.00
28606;BME280;46498;49.968;7.754;2023-04-21T23:45:14;-18559.00;;;8.84;100.00
28606;BME280;46498;49.968;7.754;2023-04-21T23:50:15;-18561.00;;;8.90;100.00
28606;BME280;46498;49.968;7.754;2023-04-21T23:55:16;-18559.00;;;8.82;100.00
